Mc Connell A F B, Kansas
Current Conditions -  °F | °C
As of 12:58 AM on Thursday 23 Oct 2014 (Local Time) from KIAB Reporting Station
Broken Clouds Broken Clouds  
Wind Chill: 63°   Ceiling: 11000
Heat Index: 63°   Visibility: 10mi
Dew Point: 60°   Wind: 12mph
Humidity: 91%   Direction: 170°S
Pressure: 30.09"   Gusts: NA
Location:  37.6282°N, 97.2663°W
Report Text: KIAB 230558Z AUTO 17010KT 10SM BKN110 17/16 A3009 RMK AO2 SLP183 60000 T01700155 10219 20170 402600142 58002
Loading
Personal Weather Stations






























Interactive Weather Map
Tropical Storm Tracking
New forecast layout! Learn more

10-Day Weather Forecast

Advertisements
Track Severe Weather on mobile